Impacts TAF Board
For situational awareness. Not to be used for flight planning purposes.
IDs:

KCXO - Conroe/Executive Arp, TX, US

Issued at 0520 UTC 19 Aug 2019
Updated at 0546 UTC 19 Aug 2019
Potential Impact None Slight Moderate High
Time0453Z 19/06Z 19/07Z 19/08Z 19/09Z 19/10Z 19/11Z 19/12Z 19/13Z 19/14Z 19/15Z 19/16Z 19/17Z 19/18Z>>
Type OBS PRVL PRVL PRVL PRVL PRVL PRVL PRVL PRVL PRVL PRVL PRVL PRVL PRVL
VIS 10 >6 >6 >6 >6 >6 >6 >6 >6 >6 >6 >6 >6 >6
CIG -- -- -- -- -- -- -- -- -- -- 35 35 -- --
Cover CLR SKC SKC SKC SKC SCT SCT SCT SCT SCT BKN BKN SCT SCT
FltCat VFR VFR VFR VFR VFR VFR VFR VFR VFR VFR VFR VFR VFR VFR
WX -- -- -- -- -- -- -- -- -- -- -- -- -- --
WDir 160 160 160 160 160 VRB VRB VRB VRB VRB 200 200 180 180
WSpd 5 4 4 4 4 3 3 3 3 3 8 8 7 7
WGst -- -- -- -- -- -- -- -- -- -- -- -- -- --
Raw TAF
KCXO 190520Z 1906/2006 16004KT P6SM SKC
  FM191000 VRB03KT P6SM SCT025
  FM191500 20008KT P6SM BKN035
  FM191700 18007KT P6SM SCT040
  FM192000 16007KT P6SM VCSH SCT050


Raw METAR
KCXO 190453Z AUTO 16005KT 10SM CLR 28/24 A2995 RMK AO2 SLP138 T02830244
KCXO 190353Z AUTO 14006KT 10SM CLR 28/24 A2994 RMK AO2 SLP135 T02830244
KCXO 190253Z AUTO 14008KT 10SM CLR 29/24 A2992 RMK AO2 SLP128 T02940239 53012

METAR Board
Radar Display
Forecast Discussion
For situational awareness. Not to be used for flight planning purposes.